createdAt,value
2023-03-13T00:01:23.073Z,-2.43
2023-03-13T00:03:51.675Z,-2.44
2023-03-13T00:06:19.717Z,-2.43
2023-03-13T00:08:48.107Z,-2.42
2023-03-13T00:11:16.224Z,-2.43
2023-03-13T00:13:45.137Z,-2.45
2023-03-13T00:16:14.701Z,-2.47
2023-03-13T00:18:51.154Z,-2.45
2023-03-13T00:21:21.979Z,-2.44
2023-03-13T00:23:51.588Z,-2.53
2023-03-13T00:26:22.627Z,-2.55
2023-03-13T00:28:51.741Z,-2.57
2023-03-13T00:31:22.424Z,-2.61
2023-03-13T00:33:54.957Z,-2.64
2023-03-13T00:36:25.610Z,-2.62
2023-03-13T00:38:55.325Z,-2.63
2023-03-13T00:41:26.032Z,-2.64
2023-03-13T00:43:54.878Z,-2.65
2023-03-13T00:46:26.761Z,-2.64
2023-03-13T00:48:55.328Z,-2.60
2023-03-13T00:51:27.158Z,-2.52
2023-03-13T00:54:00.576Z,-2.45
2023-03-13T00:56:29.686Z,-2.36
2023-03-13T00:59:00.448Z,-2.30
2023-03-13T01:01:34.672Z,-2.29
2023-03-13T01:04:06.789Z,-2.34
2023-03-13T01:06:37.233Z,-2.30
2023-03-13T01:09:07.530Z,-2.32
2023-03-13T01:11:38.044Z,-2.25
2023-03-13T01:14:09.708Z,-2.15
2023-03-13T01:16:39.023Z,-2.16
2023-03-13T01:19:13.658Z,-2.17
2023-03-13T01:21:43.580Z,-2.17
2023-03-13T01:24:12.486Z,-2.17
2023-03-13T01:26:40.789Z,-2.09
2023-03-13T01:29:08.949Z,-2.04
2023-03-13T01:31:37.662Z,-2.00
2023-03-13T01:34:08.714Z,-1.96
2023-03-13T01:36:38.160Z,-1.86
2023-03-13T01:39:07.408Z,-1.80
2023-03-13T01:41:35.646Z,-1.74
2023-03-13T01:44:04.225Z,-1.71
2023-03-13T01:46:37.611Z,-1.65
2023-03-13T01:49:30.038Z,-1.61
2023-03-13T01:52:23.861Z,-1.57
2023-03-13T01:55:16.199Z,-1.61
2023-03-13T01:57:52.870Z,-1.66
2023-03-13T02:00:33.630Z,-1.69
2023-03-13T02:03:08.897Z,-1.69
2023-03-13T02:05:38.926Z,-1.74
2023-03-13T02:08:11.087Z,-1.68
2023-03-13T02:10:50.231Z,-1.63
2023-03-13T02:13:20.146Z,-1.62
2023-03-13T02:15:49.182Z,-1.66
2023-03-13T02:18:17.533Z,-1.66
2023-03-13T02:20:50.326Z,-1.63
2023-03-13T02:23:20.291Z,-1.64
2023-03-13T02:25:51.281Z,-1.63
2023-03-13T02:28:29.547Z,-1.59
2023-03-13T02:30:58.937Z,-1.60
2023-03-13T02:33:31.407Z,-1.65
2023-03-13T02:36:02.334Z,-1.67
2023-03-13T02:38:35.647Z,-1.71
2023-03-13T02:41:06.083Z,-1.76
2023-03-13T02:43:37.852Z,-1.82
2023-03-13T02:46:11.310Z,-1.88
2023-03-13T02:48:53.856Z,-1.94
2023-03-13T02:51:33.538Z,-1.99
2023-03-13T02:54:10.239Z,-2.00
2023-03-13T02:56:41.087Z,-2.01
2023-03-13T02:59:09.957Z,-2.00
2023-03-13T03:01:40.509Z,-2.02
2023-03-13T03:04:08.907Z,-2.02
2023-03-13T03:06:37.572Z,-1.98
2023-03-13T03:09:06.191Z,-1.95
2023-03-13T03:11:36.499Z,-1.95
2023-03-13T03:14:08.983Z,-1.95
2023-03-13T03:16:40.892Z,-1.99
2023-03-13T03:19:11.195Z,-2.01
2023-03-13T03:21:39.695Z,-2.01
2023-03-13T03:24:08.373Z,-1.97
2023-03-13T03:26:37.899Z,-1.94
2023-03-13T03:29:11.214Z,-1.94
2023-03-13T03:31:39.914Z,-1.87
2023-03-13T03:34:08.026Z,-1.82
2023-03-13T03:36:36.330Z,-1.78
2023-03-13T03:39:05.341Z,-1.76
2023-03-13T03:41:33.664Z,-1.75
2023-03-13T03:44:01.716Z,-1.76
2023-03-13T03:46:37.281Z,-1.80
2023-03-13T03:49:05.543Z,-1.77
2023-03-13T03:51:33.632Z,-1.74
2023-03-13T03:54:02.249Z,-1.74
2023-03-13T03:56:31.267Z,-1.72
2023-03-13T03:59:00.602Z,-1.72
2023-03-13T04:01:38.944Z,-1.70
2023-03-13T04:04:07.433Z,-1.70
2023-03-13T04:06:36.803Z,-1.71
2023-03-13T04:09:06.357Z,-1.69
2023-03-13T04:11:36.082Z,-1.72
2023-03-13T04:14:05.246Z,-1.71
2023-03-13T04:16:34.126Z,-1.72
2023-03-13T04:19:02.517Z,-1.73
2023-03-13T04:21:30.647Z,-1.70
2023-03-13T04:24:06.221Z,-1.76
2023-03-13T04:26:35.716Z,-1.75
2023-03-13T04:29:06.363Z,-1.78
2023-03-13T04:32:10.008Z,-1.76
2023-03-13T04:34:59.058Z,-1.70
2023-03-13T04:38:01.416Z,-1.67
2023-03-13T04:40:48.794Z,-1.71
2023-03-13T04:43:29.021Z,-1.70
2023-03-13T04:46:20.324Z,-1.68
2023-03-13T04:49:08.660Z,-1.61
2023-03-13T04:51:52.446Z,-1.52
2023-03-13T04:54:43.462Z,-1.44
2023-03-13T04:57:50.349Z,-1.32
2023-03-13T05:00:37.037Z,-1.25
2023-03-13T05:03:37.251Z,-1.16
2023-03-13T05:06:28.010Z,-1.01
2023-03-13T05:09:12.014Z,-0.89
2023-03-13T05:12:10.823Z,-0.78
2023-03-13T05:14:59.159Z,-0.74
2023-03-13T05:17:45.943Z,-0.71
2023-03-13T05:20:24.035Z,-0.68
2023-03-13T05:23:00.542Z,-0.66
2023-03-13T05:25:48.082Z,-0.67
2023-03-13T05:28:16.244Z,-0.68
2023-03-13T05:30:50.505Z,-0.70
2023-03-13T05:33:27.760Z,-0.70
2023-03-13T05:36:13.310Z,-0.65
2023-03-13T05:39:01.703Z,-0.68
2023-03-13T05:41:42.007Z,-0.68
2023-03-13T05:44:36.378Z,-0.72
2023-03-13T05:47:43.057Z,-0.66
2023-03-13T05:50:23.888Z,-0.62
2023-03-13T05:52:57.918Z,-0.60
2023-03-13T05:55:36.192Z,-0.53
2023-03-13T05:58:21.685Z,-0.39
2023-03-13T06:01:12.578Z,-0.17
2023-03-13T06:04:02.726Z,0.06
2023-03-13T06:06:32.983Z,0.31
2023-03-13T06:09:01.525Z,0.49
2023-03-13T06:11:32.342Z,0.70
2023-03-13T06:14:00.814Z,0.89
2023-03-13T06:16:43.230Z,1.11
2023-03-13T06:19:21.233Z,1.36
2023-03-13T06:21:49.415Z,1.51
2023-03-13T06:24:18.142Z,1.70
2023-03-13T06:26:49.821Z,1.84
2023-03-13T06:29:18.508Z,1.99
2023-03-13T06:31:46.700Z,2.13
2023-03-13T06:34:15.409Z,2.20
2023-03-13T06:36:43.799Z,2.30
2023-03-13T06:39:12.875Z,2.35
2023-03-13T06:41:41.000Z,2.38
2023-03-13T06:44:09.334Z,2.52
2023-03-13T06:46:37.316Z,2.57
2023-03-13T06:49:06.102Z,2.55
2023-03-13T06:51:34.339Z,2.55
2023-03-13T06:54:03.970Z,2.51
2023-03-13T06:56:32.468Z,2.64
2023-03-13T06:59:01.068Z,2.73
2023-03-13T07:01:29.601Z,2.76
2023-03-13T07:03:57.960Z,2.71
2023-03-13T07:06:27.072Z,2.57
2023-03-13T07:08:55.376Z,2.62
2023-03-13T07:11:23.637Z,2.59
2023-03-13T07:14:06.554Z,2.65
2023-03-13T07:16:44.117Z,2.78
2023-03-13T07:19:12.893Z,2.98
2023-03-13T07:21:42.120Z,3.16
2023-03-13T07:24:10.271Z,3.32
2023-03-13T07:26:38.775Z,3.43
2023-03-13T07:29:07.350Z,3.54
2023-03-13T07:31:35.915Z,3.55
2023-03-13T07:34:04.161Z,3.57
2023-03-13T07:36:32.241Z,3.60
2023-03-13T07:39:00.404Z,3.61
2023-03-13T07:41:28.499Z,3.72
2023-03-13T07:43:57.357Z,3.77
2023-03-13T07:46:25.749Z,3.82
2023-03-13T07:48:55.375Z,3.84
2023-03-13T07:51:36.761Z,3.87
2023-03-13T07:54:09.305Z,4.05
2023-03-13T07:56:37.669Z,4.16
2023-03-13T07:59:06.964Z,4.30
2023-03-13T08:01:35.740Z,4.34
2023-03-13T08:04:04.336Z,4.42
2023-03-13T08:06:35.671Z,4.54
2023-03-13T08:09:04.462Z,4.73
2023-03-13T08:11:32.722Z,4.91
2023-03-13T08:14:00.974Z,5.02
2023-03-13T08:16:34.600Z,5.19
2023-03-13T08:19:07.340Z,5.22
2023-03-13T08:21:37.426Z,5.30
2023-03-13T08:24:08.192Z,5.57
2023-03-13T08:26:38.824Z,5.79
2023-03-13T08:29:10.597Z,6.08
2023-03-13T08:31:48.069Z,6.41
2023-03-13T08:34:17.903Z,6.75
2023-03-13T08:36:47.275Z,6.91
2023-03-13T08:39:18.453Z,6.94
2023-03-13T08:41:47.497Z,7.16
2023-03-13T08:44:18.546Z,7.38
2023-03-13T08:46:49.317Z,7.51
2023-03-13T08:49:17.892Z,7.61
2023-03-13T08:51:46.128Z,7.58
2023-03-13T08:54:14.495Z,7.69
2023-03-13T08:56:43.854Z,7.80
2023-03-13T08:59:12.804Z,7.90
2023-03-13T09:01:41.720Z,7.94
2023-03-13T09:04:09.988Z,8.00
2023-03-13T09:06:39.341Z,8.08
2023-03-13T09:09:08.323Z,8.15
2023-03-13T09:11:37.504Z,8.19
2023-03-13T09:14:06.720Z,8.20
2023-03-13T09:16:36.088Z,8.17
2023-03-13T09:19:05.002Z,8.15
2023-03-13T09:21:35.875Z,7.87
2023-03-13T09:24:04.245Z,7.97
2023-03-13T09:26:32.589Z,8.04
2023-03-13T09:29:00.725Z,8.12
2023-03-13T09:31:33.703Z,8.27
2023-03-13T09:34:02.248Z,8.28
2023-03-13T09:36:30.950Z,8.44
2023-03-13T09:39:01.169Z,8.27
2023-03-13T09:42:01.880Z,8.37
2023-03-13T09:44:37.636Z,8.42
2023-03-13T09:47:23.825Z,8.51
2023-03-13T09:50:03.028Z,8.69
2023-03-13T09:52:39.344Z,8.79
2023-03-13T09:55:23.682Z,8.88
2023-03-13T09:58:00.157Z,8.97
2023-03-13T10:00:36.494Z,9.01
2023-03-13T10:03:22.924Z,9.00
2023-03-13T10:05:55.923Z,8.94
2023-03-13T10:08:31.395Z,8.96
2023-03-13T10:11:11.598Z,8.98
2023-03-13T10:14:11.605Z,9.00
2023-03-13T10:17:11.767Z,9.07
2023-03-13T10:19:43.532Z,9.17
2023-03-13T10:22:20.529Z,9.29
2023-03-13T10:24:58.547Z,9.41
2023-03-13T10:27:26.914Z,9.46
2023-03-13T10:29:55.334Z,9.63
2023-03-13T10:32:23.696Z,9.80
2023-03-13T10:34:57.647Z,9.90
2023-03-13T10:37:32.592Z,9.91
2023-03-13T10:40:15.161Z,9.85
2023-03-13T10:42:45.942Z,9.96
2023-03-13T10:45:18.108Z,10.05
2023-03-13T10:48:00.156Z,10.18
2023-03-13T10:50:33.881Z,10.24
2023-03-13T10:53:20.457Z,10.30
2023-03-13T10:55:48.963Z,10.39
2023-03-13T10:58:30.671Z,10.24
2023-03-13T11:01:29.659Z,10.35
2023-03-13T11:04:00.829Z,10.35
2023-03-13T11:06:36.161Z,10.31
2023-03-13T11:09:15.076Z,10.27
2023-03-13T11:11:55.668Z,10.46
2023-03-13T11:14:25.990Z,10.52
2023-03-13T11:17:14.712Z,10.56
2023-03-13T11:19:48.936Z,10.57
2023-03-13T11:23:01.182Z,10.47
2023-03-13T11:26:06.908Z,10.54
2023-03-13T11:28:47.267Z,10.53
2023-03-13T11:31:25.538Z,10.57
2023-03-13T11:34:06.858Z,10.69
2023-03-13T11:36:44.252Z,10.79
2023-03-13T11:39:21.356Z,10.87
2023-03-13T11:42:37.842Z,10.95
2023-03-13T11:45:43.848Z,10.94
2023-03-13T11:48:18.220Z,11.08
2023-03-13T11:50:59.032Z,11.14
2023-03-13T11:53:49.309Z,10.98
2023-03-13T11:56:29.313Z,11.05
2023-03-13T11:59:16.866Z,11.06
2023-03-13T12:02:26.948Z,11.13
2023-03-13T12:04:59.893Z,10.97
2023-03-13T12:07:46.508Z,11.05
2023-03-13T12:10:40.275Z,11.22
2023-03-13T12:13:24.063Z,11.35
2023-03-13T12:16:00.652Z,11.44
2023-03-13T12:18:38.611Z,11.49
2023-03-13T12:21:13.035Z,11.47
2023-03-13T12:23:49.173Z,11.29
2023-03-13T12:26:21.001Z,11.06
2023-03-13T12:28:55.351Z,11.13
2023-03-13T12:31:37.078Z,11.08
2023-03-13T12:34:25.211Z,11.11
2023-03-13T12:37:01.458Z,10.88
2023-03-13T12:39:59.388Z,10.95
2023-03-13T12:42:51.284Z,11.09
2023-03-13T12:45:24.349Z,11.12
2023-03-13T12:48:11.272Z,11.31
2023-03-13T12:51:02.184Z,11.46
2023-03-13T12:53:42.427Z,11.62
2023-03-13T12:56:31.259Z,11.62
2023-03-13T12:59:04.515Z,11.61
2023-03-13T13:01:39.847Z,11.50
2023-03-13T13:04:20.828Z,11.53
2023-03-13T13:07:29.137Z,11.61
2023-03-13T13:10:09.394Z,11.54
2023-03-13T13:13:04.376Z,11.56
2023-03-13T13:15:33.579Z,11.51
2023-03-13T13:18:06.938Z,11.43
2023-03-13T13:20:45.312Z,11.44
2023-03-13T13:23:21.215Z,11.46
2023-03-13T13:25:51.058Z,11.59
2023-03-13T13:28:22.074Z,11.66
2023-03-13T13:30:54.552Z,11.68
2023-03-13T13:33:31.064Z,11.57
2023-03-13T13:36:22.482Z,11.57
2023-03-13T13:38:57.963Z,11.55
2023-03-13T13:41:35.251Z,11.61
2023-03-13T13:44:23.692Z,11.72
2023-03-13T13:46:53.733Z,11.77
2023-03-13T13:49:27.109Z,11.80
2023-03-13T13:52:04.585Z,11.68
2023-03-13T13:54:33.354Z,11.66
2023-03-13T13:57:07.628Z,11.62
2023-03-13T13:59:44.996Z,11.49
2023-03-13T14:02:22.736Z,11.61
2023-03-13T14:04:56.667Z,11.54
2023-03-13T14:07:30.477Z,11.62
2023-03-13T14:10:04.490Z,11.54
2023-03-13T14:12:38.573Z,11.47
2023-03-13T14:15:06.772Z,11.38
2023-03-13T14:17:43.612Z,11.29
2023-03-13T14:20:38.644Z,11.25
2023-03-13T14:23:12.057Z,11.26
2023-03-13T14:25:43.941Z,11.24
2023-03-13T14:28:24.284Z,11.13
2023-03-13T14:30:56.727Z,11.19
2023-03-13T14:33:27.942Z,11.19
2023-03-13T14:35:57.822Z,11.22
2023-03-13T14:38:30.205Z,11.17
2023-03-13T14:40:58.571Z,11.22
2023-03-13T14:43:36.779Z,11.23
2023-03-13T14:46:21.714Z,11.20
2023-03-13T14:48:50.048Z,11.17
2023-03-13T14:51:25.574Z,10.96
2023-03-13T14:53:59.292Z,11.02
2023-03-13T14:56:42.430Z,10.88
2023-03-13T14:59:26.264Z,10.85
2023-03-13T15:02:20.530Z,10.78
2023-03-13T15:04:53.107Z,10.73
2023-03-13T15:07:22.841Z,10.58
2023-03-13T15:09:52.239Z,10.55
2023-03-13T15:12:23.793Z,10.55
2023-03-13T15:14:53.233Z,10.57
2023-03-13T15:17:26.864Z,10.38
2023-03-13T15:19:59.303Z,10.25
2023-03-13T15:22:30.685Z,10.29
2023-03-13T15:25:07.912Z,10.32
2023-03-13T15:27:36.366Z,10.34
2023-03-13T15:30:05.149Z,10.26
2023-03-13T15:32:35.055Z,10.16
2023-03-13T15:35:17.734Z,10.12
2023-03-13T15:37:46.321Z,10.03
2023-03-13T15:40:15.675Z,10.02
2023-03-13T15:42:43.803Z,9.97
2023-03-13T15:45:12.159Z,9.87
2023-03-13T15:47:40.142Z,9.78
2023-03-13T15:50:14.940Z,9.63
2023-03-13T15:52:43.484Z,9.56
2023-03-13T15:55:12.663Z,9.54
2023-03-13T15:57:47.181Z,9.50
2023-03-13T16:00:21.925Z,9.34
2023-03-13T16:02:50.624Z,9.22
2023-03-13T16:05:18.800Z,9.11
2023-03-13T16:07:46.968Z,8.96
2023-03-13T16:10:24.544Z,8.80
2023-03-13T16:12:54.429Z,8.65
2023-03-13T16:15:22.566Z,8.54
2023-03-13T16:17:50.978Z,8.36
2023-03-13T16:20:21.879Z,8.27
2023-03-13T16:22:52.973Z,8.15
2023-03-13T16:25:22.878Z,8.01
2023-03-13T16:27:53.508Z,7.88
2023-03-13T16:30:31.039Z,7.70
2023-03-13T16:32:59.601Z,7.58
2023-03-13T16:35:28.839Z,7.50
2023-03-13T16:37:58.199Z,7.44
2023-03-13T16:40:30.879Z,7.33
2023-03-13T16:42:59.470Z,7.18
2023-03-13T16:45:28.161Z,7.07
2023-03-13T16:47:56.489Z,6.92
2023-03-13T16:50:36.378Z,6.83
2023-03-13T16:53:04.938Z,6.68
2023-03-13T16:55:36.767Z,6.57
2023-03-13T16:58:05.359Z,6.49
2023-03-13T17:00:33.628Z,6.34
2023-03-13T17:03:01.954Z,6.29
2023-03-13T17:05:30.207Z,6.20
2023-03-13T17:07:58.290Z,6.10
2023-03-13T17:10:35.255Z,6.01
2023-03-13T17:13:05.687Z,5.88
2023-03-13T17:15:33.876Z,5.80
2023-03-13T17:18:02.270Z,5.74
2023-03-13T17:20:30.822Z,5.66
2023-03-13T17:23:01.166Z,5.58
2023-03-13T17:25:30.169Z,5.50
2023-03-13T17:27:58.233Z,5.41
2023-03-13T17:30:31.737Z,5.31
2023-03-13T17:33:01.057Z,5.26
2023-03-13T17:35:29.390Z,5.21
2023-03-13T17:37:57.540Z,5.15
2023-03-13T17:40:28.834Z,5.08
2023-03-13T17:42:58.374Z,5.01
2023-03-13T17:45:26.878Z,4.95
2023-03-13T17:47:55.236Z,4.93
2023-03-13T17:50:27.250Z,4.91
2023-03-13T17:52:56.330Z,4.89
2023-03-13T17:55:25.019Z,4.86
2023-03-13T17:57:53.808Z,4.82
2023-03-13T18:00:26.162Z,4.78
2023-03-13T18:02:54.442Z,4.73
2023-03-13T18:05:22.655Z,4.74
2023-03-13T18:07:51.041Z,4.73
2023-03-13T18:10:26.958Z,4.74
2023-03-13T18:12:55.803Z,4.70
2023-03-13T18:15:25.980Z,4.67
2023-03-13T18:17:54.719Z,4.60
2023-03-13T18:20:29.707Z,4.53
2023-03-13T18:23:00.803Z,4.45
2023-03-13T18:25:29.835Z,4.37
2023-03-13T18:27:57.893Z,4.30
2023-03-13T18:30:27.052Z,4.24
2023-03-13T18:32:55.297Z,4.17
2023-03-13T18:35:23.461Z,4.10
2023-03-13T18:37:51.523Z,4.04
2023-03-13T18:40:23.143Z,4.00
2023-03-13T18:42:51.508Z,3.98
2023-03-13T18:45:22.415Z,3.96
2023-03-13T18:47:50.786Z,3.91
2023-03-13T18:50:25.213Z,3.85
2023-03-13T18:52:55.608Z,3.77
2023-03-13T18:55:26.101Z,3.68
2023-03-13T18:57:55.470Z,3.57
2023-03-13T19:00:30.558Z,3.54
2023-03-13T19:02:58.844Z,3.46
2023-03-13T19:05:26.891Z,3.40
2023-03-13T19:07:55.301Z,3.32
2023-03-13T19:10:32.784Z,3.29
2023-03-13T19:13:00.893Z,3.23
2023-03-13T19:15:30.929Z,3.17
2023-03-13T19:18:02.678Z,3.14
2023-03-13T19:20:31.455Z,3.08
2023-03-13T19:23:00.863Z,3.02
2023-03-13T19:25:29.611Z,2.97
2023-03-13T19:27:57.860Z,2.91
2023-03-13T19:30:26.552Z,2.84
2023-03-13T19:32:54.613Z,2.78
2023-03-13T19:35:23.098Z,2.69
2023-03-13T19:37:51.326Z,2.62
2023-03-13T19:40:23.339Z,2.56
2023-03-13T19:42:51.752Z,2.51
2023-03-13T19:45:22.232Z,2.46
2023-03-13T19:47:50.412Z,2.43
2023-03-13T19:50:21.839Z,2.41
2023-03-13T19:52:50.371Z,2.36
2023-03-13T19:55:18.759Z,2.28
2023-03-13T19:57:46.874Z,2.20
2023-03-13T20:00:28.088Z,2.19
2023-03-13T20:02:56.546Z,2.21
2023-03-13T20:05:27.424Z,2.20
2023-03-13T20:07:56.001Z,2.19
2023-03-13T20:10:25.545Z,2.20
2023-03-13T20:12:53.778Z,2.22
2023-03-13T20:15:22.101Z,2.26
2023-03-13T20:17:50.348Z,2.32
2023-03-13T20:20:18.856Z,2.39
2023-03-13T20:22:46.941Z,2.43
2023-03-13T20:25:16.327Z,2.49
2023-03-13T20:27:44.441Z,2.56
2023-03-13T20:30:13.003Z,2.54
2023-03-13T20:32:56.666Z,2.51
2023-03-13T20:35:25.091Z,2.51
2023-03-13T20:37:54.761Z,2.51
2023-03-13T20:40:23.162Z,2.47
2023-03-13T20:42:51.220Z,2.47
2023-03-13T20:45:19.518Z,2.44
2023-03-13T20:47:47.632Z,2.42
2023-03-13T20:50:17.469Z,2.40
2023-03-13T20:52:47.516Z,2.36
2023-03-13T20:55:16.430Z,2.35
2023-03-13T20:57:44.844Z,2.34
2023-03-13T21:00:13.504Z,2.36
2023-03-13T21:02:41.578Z,2.37
2023-03-13T21:05:10.273Z,2.38
2023-03-13T21:07:38.560Z,2.40
2023-03-13T21:10:07.459Z,2.45
2023-03-13T21:12:36.549Z,2.49
2023-03-13T21:15:06.326Z,2.47
2023-03-13T21:17:35.681Z,2.46
2023-03-13T21:20:12.568Z,2.41
2023-03-13T21:22:42.002Z,2.38
2023-03-13T21:25:12.105Z,2.36
2023-03-13T21:27:40.235Z,2.34
2023-03-13T21:30:10.443Z,2.20
2023-03-13T21:32:39.701Z,2.12
2023-03-13T21:35:09.393Z,2.08
2023-03-13T21:37:38.410Z,2.06
2023-03-13T21:40:08.905Z,1.99
2023-03-13T21:42:37.774Z,1.93
2023-03-13T21:45:07.568Z,1.87
2023-03-13T21:47:38.505Z,1.87
2023-03-13T21:50:09.993Z,1.89
2023-03-13T21:52:41.400Z,1.92
2023-03-13T21:55:12.902Z,1.96
2023-03-13T21:57:41.409Z,1.93
2023-03-13T22:00:10.585Z,1.91
2023-03-13T22:02:38.696Z,1.88
2023-03-13T22:05:07.904Z,1.81
2023-03-13T22:07:36.801Z,1.77
2023-03-13T22:10:05.016Z,1.76
2023-03-13T22:12:37.434Z,1.73
2023-03-13T22:15:06.585Z,1.71
2023-03-13T22:17:37.210Z,1.67
2023-03-13T22:20:08.790Z,1.67
2023-03-13T22:22:38.178Z,1.66
2023-03-13T22:25:06.999Z,1.63
2023-03-13T22:27:36.281Z,1.62
2023-03-13T22:30:05.011Z,1.63
2023-03-13T22:32:33.083Z,1.63
2023-03-13T22:35:01.802Z,1.62
2023-03-13T22:37:29.901Z,1.67
2023-03-13T22:39:57.940Z,1.65
2023-03-13T22:42:27.924Z,1.64
2023-03-13T22:44:55.997Z,1.61
2023-03-13T22:47:25.993Z,1.54
2023-03-13T22:49:54.123Z,1.48
2023-03-13T22:52:29.148Z,1.48
2023-03-13T22:54:58.254Z,1.50
2023-03-13T22:57:26.134Z,1.53
2023-03-13T22:59:54.190Z,1.51
2023-03-13T23:02:22.623Z,1.52
2023-03-13T23:04:50.998Z,1.52
2023-03-13T23:07:19.055Z,1.54
2023-03-13T23:09:47.132Z,1.52
2023-03-13T23:12:15.314Z,1.47
2023-03-13T23:14:43.497Z,1.44
2023-03-13T23:17:12.394Z,1.48
2023-03-13T23:19:40.472Z,1.47
2023-03-13T23:22:08.769Z,1.48
2023-03-13T23:24:36.776Z,1.48
2023-03-13T23:27:05.527Z,1.42
2023-03-13T23:29:33.810Z,1.41
2023-03-13T23:32:02.113Z,1.41
2023-03-13T23:34:29.992Z,1.37
2023-03-13T23:36:58.256Z,1.37
2023-03-13T23:39:26.231Z,1.38
2023-03-13T23:41:54.135Z,1.31
2023-03-13T23:44:22.005Z,1.31
2023-03-13T23:46:50.270Z,1.29
2023-03-13T23:49:18.341Z,1.28
2023-03-13T23:51:46.432Z,1.29
2023-03-13T23:54:14.483Z,1.29
2023-03-13T23:56:42.654Z,1.29
2023-03-13T23:59:10.523Z,1.28
